sensor_id;sensor_type;location;lat;lon;timestamp;pressure;altitude;pressure_sealevel;temperature;humidity
86204;BME280;76856;42.356;24.732;2024-03-08T11:37:00;99441.19;;;8.35;76.15
86204;BME280;76856;42.356;24.732;2024-03-08T11:39:26;99442.59;;;8.39;75.85
86204;BME280;76856;42.356;24.732;2024-03-08T11:41:54;99440.88;;;8.38;74.91
86204;BME280;76856;42.356;24.732;2024-03-08T11:44:20;99444.63;;;8.45;75.31
86204;BME280;76856;42.356;24.732;2024-03-08T11:46:46;99443.41;;;8.40;76.21
86204;BME280;76856;42.356;24.732;2024-03-08T11:49:14;99442.50;;;8.49;75.93
86204;BME280;76856;42.356;24.732;2024-03-08T11:51:41;99439.72;;;8.50;75.34
86204;BME280;76856;42.356;24.732;2024-03-08T11:54:11;99431.91;;;8.59;76.16
86204;BME280;76856;42.356;24.732;2024-03-08T11:56:40;99433.84;;;8.56;75.99
86204;BME280;76856;42.356;24.732;2024-03-08T11:59:11;99428.41;;;8.58;75.16
86204;BME280;76856;42.356;24.732;2024-03-08T12:01:38;99429.41;;;8.57;75.28
86204;BME280;76856;42.356;24.732;2024-03-08T12:04:04;99428.50;;;8.66;75.41
86204;BME280;76856;42.356;24.732;2024-03-08T12:06:39;99428.56;;;8.74;75.84
86204;BME280;76856;42.356;24.732;2024-03-08T12:09:09;99424.81;;;8.77;75.85
86204;BME280;76856;42.356;24.732;2024-03-08T12:11:36;99421.88;;;8.80;74.62
86204;BME280;76856;42.356;24.732;2024-03-08T12:14:03;99425.00;;;8.84;74.92
86204;BME280;76856;42.356;24.732;2024-03-08T12:16:28;99421.41;;;8.85;74.83
86204;BME280;76856;42.356;24.732;2024-03-08T12:18:54;99419.59;;;8.85;74.35
86204;BME280;76856;42.356;24.732;2024-03-08T12:21:20;99420.81;;;8.91;75.87
86204;BME280;76856;42.356;24.732;2024-03-08T12:23:47;99422.97;;;8.95;74.68
86204;BME280;76856;42.356;24.732;2024-03-08T12:26:28;99422.31;;;8.93;73.96
86204;BME280;76856;42.356;24.732;2024-03-08T12:28:53;99422.00;;;8.96;74.77
86204;BME280;76856;42.356;24.732;2024-03-08T12:31:19;99411.75;;;8.93;73.97
86204;BME280;76856;42.356;24.732;2024-03-08T12:33:50;99414.41;;;8.93;73.67
86204;BME280;76856;42.356;24.732;2024-03-08T12:36:17;99413.72;;;8.91;73.61
86204;BME280;76856;42.356;24.732;2024-03-08T12:38:46;99415.34;;;8.92;73.88
86204;BME280;76856;42.356;24.732;2024-03-08T12:41:18;99406.53;;;9.01;73.60
86204;BME280;76856;42.356;24.732;2024-03-08T12:43:45;99407.56;;;9.09;75.09
86204;BME280;76856;42.356;24.732;2024-03-08T12:46:15;99405.69;;;9.01;73.36
86204;BME280;76856;42.356;24.732;2024-03-08T12:48:42;99403.53;;;8.96;73.75
86204;BME280;76856;42.356;24.732;2024-03-08T12:51:16;99398.72;;;8.92;74.41
86204;BME280;76856;42.356;24.732;2024-03-08T12:53:44;99398.34;;;8.87;74.02
86204;BME280;76856;42.356;24.732;2024-03-08T12:56:14;99402.47;;;8.89;73.60
86204;BME280;76856;42.356;24.732;2024-03-08T12:58:44;99402.16;;;8.92;73.77
86204;BME280;76856;42.356;24.732;2024-03-08T13:01:10;99411.59;;;8.95;72.71
86204;BME280;76856;42.356;24.732;2024-03-08T13:03:37;99401.72;;;8.97;73.50
86204;BME280;76856;42.356;24.732;2024-03-08T13:06:04;99414.50;;;9.10;74.28
86204;BME280;76856;42.356;24.732;2024-03-08T13:08:37;99410.78;;;9.20;75.89
86204;BME280;76856;42.356;24.732;2024-03-08T13:11:09;99408.31;;;9.19;72.52
86204;BME280;76856;42.356;24.732;2024-03-08T13:13:39;99404.38;;;9.23;71.61
86204;BME280;76856;42.356;24.732;2024-03-08T13:16:06;99408.00;;;9.22;72.32
86204;BME280;76856;42.356;24.732;2024-03-08T13:18:34;99395.94;;;9.19;72.18
86204;BME280;76856;42.356;24.732;2024-03-08T13:21:00;99397.75;;;9.19;72.55
86204;BME280;76856;42.356;24.732;2024-03-08T13:23:30;99392.16;;;9.22;72.88
86204;BME280;76856;42.356;24.732;2024-03-08T13:25:56;99392.22;;;9.30;72.56
86204;BME280;76856;42.356;24.732;2024-03-08T13:28:22;99394.69;;;9.32;71.45
86204;BME280;76856;42.356;24.732;2024-03-08T13:30:54;99386.69;;;9.41;72.15
86204;BME280;76856;42.356;24.732;2024-03-08T13:33:19;99392.97;;;9.48;73.01
86204;BME280;76856;42.356;24.732;2024-03-08T13:35:45;99387.69;;;9.48;70.14
86204;BME280;76856;42.356;24.732;2024-03-08T13:38:12;99385.56;;;9.52;71.94
86204;BME280;76856;42.356;24.732;2024-03-08T13:40:39;99384.72;;;9.52;71.43
86204;BME280;76856;42.356;24.732;2024-03-08T13:43:06;99384.06;;;9.50;71.46
86204;BME280;76856;42.356;24.732;2024-03-08T13:45:34;99393.63;;;9.51;72.37
86204;BME280;76856;42.356;24.732;2024-03-08T13:48:07;99392.00;;;9.58;71.27
86204;BME280;76856;42.356;24.732;2024-03-08T13:50:38;99380.31;;;9.60;70.78
86204;BME280;76856;42.356;24.732;2024-03-08T13:53:04;99381.31;;;9.59;70.96
86204;BME280;76856;42.356;24.732;2024-03-08T13:55:29;99385.78;;;9.67;70.93
86204;BME280;76856;42.356;24.732;2024-03-08T13:57:56;99369.94;;;9.67;70.42
86204;BME280;76856;42.356;24.732;2024-03-08T14:00:25;99383.13;;;9.67;69.29
86204;BME280;76856;42.356;24.732;2024-03-08T14:02:54;99376.38;;;9.73;69.92
86204;BME280;76856;42.356;24.732;2024-03-08T14:05:20;99378.22;;;9.72;71.35
86204;BME280;76856;42.356;24.732;2024-03-08T14:07:46;99374.75;;;9.72;71.62
86204;BME280;76856;42.356;24.732;2024-03-08T14:10:14;99367.81;;;9.70;70.68
86204;BME280;76856;42.356;24.732;2024-03-08T14:12:40;99376.88;;;9.68;70.05
86204;BME280;76856;42.356;24.732;2024-03-08T14:15:08;99371.56;;;9.60;70.49
86204;BME280;76856;42.356;24.732;2024-03-08T14:17:35;99368.22;;;9.50;70.48
86204;BME280;76856;42.356;24.732;2024-03-08T14:20:01;99369.34;;;9.47;70.21
86204;BME280;76856;42.356;24.732;2024-03-08T14:22:28;99368.03;;;9.43;70.58
86204;BME280;76856;42.356;24.732;2024-03-08T14:24:53;99373.00;;;9.46;70.43
86204;BME280;76856;42.356;24.732;2024-03-08T14:27:21;99368.50;;;9.38;70.09
86204;BME280;76856;42.356;24.732;2024-03-08T14:29:48;99363.22;;;9.38;70.93
86204;BME280;76856;42.356;24.732;2024-03-08T14:32:13;99364.22;;;9.37;71.66
86204;BME280;76856;42.356;24.732;2024-03-08T14:34:39;99367.84;;;9.36;71.96
86204;BME280;76856;42.356;24.732;2024-03-08T14:37:05;99367.63;;;9.30;71.78
86204;BME280;76856;42.356;24.732;2024-03-08T14:39:34;99372.41;;;9.26;72.06
86204;BME280;76856;42.356;24.732;2024-03-08T14:42:00;99376.22;;;9.32;72.63
86204;BME280;76856;42.356;24.732;2024-03-08T14:44:27;99365.97;;;9.29;71.11
86204;BME280;76856;42.356;24.732;2024-03-08T14:47:00;99375.72;;;9.28;71.32
86204;BME280;76856;42.356;24.732;2024-03-08T14:49:26;99369.13;;;9.32;71.04
86204;BME280;76856;42.356;24.732;2024-03-08T14:51:54;99377.34;;;9.29;70.67
86204;BME280;76856;42.356;24.732;2024-03-08T14:54:20;99383.44;;;9.30;71.01
86204;BME280;76856;42.356;24.732;2024-03-08T14:56:48;99377.34;;;9.29;71.48
86204;BME280;76856;42.356;24.732;2024-03-08T14:59:16;99380.00;;;9.29;72.19
86204;BME280;76856;42.356;24.732;2024-03-08T15:01:42;99393.50;;;9.26;73.01
86204;BME280;76856;42.356;24.732;2024-03-08T15:04:09;99381.50;;;9.32;72.75
86204;BME280;76856;42.356;24.732;2024-03-08T15:06:36;99380.03;;;9.37;73.11
86204;BME280;76856;42.356;24.732;2024-03-08T15:09:03;99396.00;;;9.28;72.43
86204;BME280;76856;42.356;24.732;2024-03-08T15:11:40;99393.81;;;9.23;73.61
86204;BME280;76856;42.356;24.732;2024-03-08T15:14:07;99396.09;;;9.18;73.30
86204;BME280;76856;42.356;24.732;2024-03-08T15:16:39;99385.53;;;9.18;74.82
86204;BME280;76856;42.356;24.732;2024-03-08T15:19:08;99401.72;;;9.23;74.84
86204;BME280;76856;42.356;24.732;2024-03-08T15:21:34;99391.13;;;9.15;74.35
86204;BME280;76856;42.356;24.732;2024-03-08T15:24:03;99401.34;;;9.18;74.83
86204;BME280;76856;42.356;24.732;2024-03-08T15:26:29;99391.81;;;9.17;74.80
86204;BME280;76856;42.356;24.732;2024-03-08T15:28:57;99390.75;;;9.10;74.86
86204;BME280;76856;42.356;24.732;2024-03-08T15:31:23;99394.75;;;9.14;75.07
86204;BME280;76856;42.356;24.732;2024-03-08T15:33:50;99390.28;;;9.14;75.29
86204;BME280;76856;42.356;24.732;2024-03-08T15:36:32;99396.50;;;9.05;74.89
86204;BME280;76856;42.356;24.732;2024-03-08T15:38:59;99400.28;;;9.02;74.99
86204;BME280;76856;42.356;24.732;2024-03-08T15:41:25;99392.31;;;8.94;75.09
86204;BME280;76856;42.356;24.732;2024-03-08T15:43:52;99396.25;;;8.90;75.64
86204;BME280;76856;42.356;24.732;2024-03-08T15:46:18;99400.84;;;8.88;76.34
86204;BME280;76856;42.356;24.732;2024-03-08T15:48:48;99401.16;;;8.85;76.73
86204;BME280;76856;42.356;24.732;2024-03-08T15:51:14;99401.75;;;8.79;77.42
86204;BME280;76856;42.356;24.732;2024-03-08T15:53:43;99411.63;;;8.77;78.13
86204;BME280;76856;42.356;24.732;2024-03-08T15:56:09;99415.59;;;8.81;77.79
86204;BME280;76856;42.356;24.732;2024-03-08T15:58:35;99413.94;;;8.80;78.38
86204;BME280;76856;42.356;24.732;2024-03-08T16:01:01;99423.16;;;8.76;77.85
86204;BME280;76856;42.356;24.732;2024-03-08T16:03:39;99415.38;;;8.74;78.07
86204;BME280;76856;42.356;24.732;2024-03-08T16:06:04;99421.78;;;8.72;78.34
86204;BME280;76856;42.356;24.732;2024-03-08T16:08:31;99419.38;;;8.61;78.07
86204;BME280;76856;42.356;24.732;2024-03-08T16:10:58;99425.25;;;8.54;78.72
86204;BME280;76856;42.356;24.732;2024-03-08T16:13:26;99429.41;;;8.57;78.27
86204;BME280;76856;42.356;24.732;2024-03-08T16:15:53;99427.47;;;8.59;78.20
86204;BME280;76856;42.356;24.732;2024-03-08T16:18:22;99429.94;;;8.61;78.39
86204;BME280;76856;42.356;24.732;2024-03-08T16:20:55;99420.81;;;8.55;78.60
86204;BME280;76856;42.356;24.732;2024-03-08T16:23:22;99427.22;;;8.52;78.42
86204;BME280;76856;42.356;24.732;2024-03-08T16:25:48;99438.13;;;8.40;78.17
86204;BME280;76856;42.356;24.732;2024-03-08T16:28:14;99437.19;;;8.31;78.36
86204;BME280;76856;42.356;24.732;2024-03-08T16:30:42;99445.50;;;8.36;78.18
86204;BME280;76856;42.356;24.732;2024-03-08T16:33:11;99447.03;;;8.29;77.75
86204;BME280;76856;42.356;24.732;2024-03-08T16:35:40;99442.28;;;8.32;77.52
86204;BME280;76856;42.356;24.732;2024-03-08T16:38:09;99450.59;;;8.38;77.44
86204;BME280;76856;42.356;24.732;2024-03-08T16:40:50;99449.50;;;8.40;77.30
86204;BME280;76856;42.356;24.732;2024-03-08T16:43:25;99456.41;;;8.41;77.84
86204;BME280;76856;42.356;24.732;2024-03-08T16:45:51;99453.94;;;8.40;77.35
86204;BME280;76856;42.356;24.732;2024-03-08T16:48:18;99453.13;;;8.39;77.19
86204;BME280;76856;42.356;24.732;2024-03-08T16:50:48;99449.06;;;8.35;77.79
86204;BME280;76856;42.356;24.732;2024-03-08T16:53:15;99456.03;;;8.36;77.85
86204;BME280;76856;42.356;24.732;2024-03-08T16:55:41;99448.56;;;8.31;77.76
86204;BME280;76856;42.356;24.732;2024-03-08T16:58:07;99440.81;;;8.30;77.40
86204;BME280;76856;42.356;24.732;2024-03-08T17:00:39;99441.69;;;8.21;77.17
86204;BME280;76856;42.356;24.732;2024-03-08T17:03:07;99445.31;;;8.20;77.83
86204;BME280;76856;42.356;24.732;2024-03-08T17:05:33;99447.94;;;8.20;77.85
86204;BME280;76856;42.356;24.732;2024-03-08T17:08:00;99455.16;;;8.18;78.19
86204;BME280;76856;42.356;24.732;2024-03-08T17:10:30;99453.72;;;8.23;78.18
86204;BME280;76856;42.356;24.732;2024-03-08T17:12:57;99459.81;;;8.24;78.94
86204;BME280;76856;42.356;24.732;2024-03-08T17:15:30;99462.16;;;8.27;78.32
86204;BME280;76856;42.356;24.732;2024-03-08T17:17:58;99467.81;;;8.32;78.27
86204;BME280;76856;42.356;24.732;2024-03-08T17:20:32;99469.50;;;8.33;78.45
86204;BME280;76856;42.356;24.732;2024-03-08T17:23:03;99478.06;;;8.35;78.45
86204;BME280;76856;42.356;24.732;2024-03-08T17:25:32;99472.94;;;8.33;78.31
86204;BME280;76856;42.356;24.732;2024-03-08T17:27:59;99472.47;;;8.38;77.90
86204;BME280;76856;42.356;24.732;2024-03-08T17:30:29;99467.81;;;8.32;77.95
86204;BME280;76856;42.356;24.732;2024-03-08T17:32:56;99482.38;;;8.36;77.93
86204;BME280;76856;42.356;24.732;2024-03-08T17:35:24;99479.47;;;8.39;78.05
86204;BME280;76856;42.356;24.732;2024-03-08T17:37:52;99484.44;;;8.42;78.12
86204;BME280;76856;42.356;24.732;2024-03-08T17:40:25;99484.44;;;8.42;77.78
86204;BME280;76856;42.356;24.732;2024-03-08T17:45:24;99487.06;;;8.42;77.59
86204;BME280;76856;42.356;24.732;2024-03-08T17:47:50;99499.94;;;8.45;77.09
86204;BME280;76856;42.356;24.732;2024-03-08T17:50:17;99505.50;;;8.42;77.13
86204;BME280;76856;42.356;24.732;2024-03-08T17:52:44;99489.56;;;8.34;77.02
86204;BME280;76856;42.356;24.732;2024-03-08T17:55:11;99494.84;;;8.34;76.81
86204;BME280;76856;42.356;24.732;2024-03-08T17:57:40;99498.00;;;8.38;76.90
86204;BME280;76856;42.356;24.732;2024-03-08T18:00:07;99489.28;;;8.37;77.41
86204;BME280;76856;42.356;24.732;2024-03-08T18:02:47;99492.22;;;8.34;76.75
86204;BME280;76856;42.356;24.732;2024-03-08T18:05:20;99489.47;;;8.26;77.53
86204;BME280;76856;42.356;24.732;2024-03-08T18:07:58;99489.94;;;8.21;77.05
86204;BME280;76856;42.356;24.732;2024-03-08T18:10:26;99496.75;;;8.14;77.37
86204;BME280;76856;42.356;24.732;2024-03-08T18:12:53;99498.16;;;8.08;77.25
86204;BME280;76856;42.356;24.732;2024-03-08T18:15:28;99498.22;;;7.99;77.14
86204;BME280;76856;42.356;24.732;2024-03-08T18:17:58;99500.69;;;8.00;77.14
86204;BME280;76856;42.356;24.732;2024-03-08T18:20:25;99511.91;;;8.02;77.32
86204;BME280;76856;42.356;24.732;2024-03-08T18:23:04;99514.56;;;8.02;77.83
86204;BME280;76856;42.356;24.732;2024-03-08T18:25:33;99516.75;;;8.07;78.02
86204;BME280;76856;42.356;24.732;2024-03-08T18:28:00;99520.88;;;8.09;77.95
86204;BME280;76856;42.356;24.732;2024-03-08T18:30:38;99526.53;;;8.15;78.13
86204;BME280;76856;42.356;24.732;2024-03-08T18:33:07;99523.78;;;8.16;77.47
86204;BME280;76856;42.356;24.732;2024-03-08T18:35:34;99522.25;;;8.13;77.22
86204;BME280;76856;42.356;24.732;2024-03-08T18:38:00;99520.31;;;8.16;77.59
86204;BME280;76856;42.356;24.732;2024-03-08T18:40:26;99530.16;;;8.13;77.36
86204;BME280;76856;42.356;24.732;2024-03-08T18:42:53;99525.47;;;8.07;77.33
86204;BME280;76856;42.356;24.732;2024-03-08T18:45:20;99525.47;;;8.07;77.61
86204;BME280;76856;42.356;24.732;2024-03-08T18:47:48;99525.47;;;8.07;76.94
86204;BME280;76856;42.356;24.732;2024-03-08T18:50:19;99535.63;;;8.02;77.66
86204;BME280;76856;42.356;24.732;2024-03-08T18:52:46;99526.06;;;8.01;76.86
86204;BME280;76856;42.356;24.732;2024-03-08T18:55:13;99526.31;;;7.98;77.51
86204;BME280;76856;42.356;24.732;2024-03-08T18:57:43;99525.69;;;7.86;78.06
86204;BME280;76856;42.356;24.732;2024-03-08T19:00:16;99520.72;;;7.83;78.25
86204;BME280;76856;42.356;24.732;2024-03-08T19:02:58;99516.47;;;7.63;79.12
86204;BME280;76856;42.356;24.732;2024-03-08T19:05:31;99521.50;;;7.56;78.74
86204;BME280;76856;42.356;24.732;2024-03-08T19:08:01;99521.66;;;7.45;79.12
86204;BME280;76856;42.356;24.732;2024-03-08T19:10:32;99518.06;;;7.36;78.24
86204;BME280;76856;42.356;24.732;2024-03-08T19:12:57;99527.78;;;7.36;78.81
86204;BME280;76856;42.356;24.732;2024-03-08T19:15:27;99529.97;;;7.31;78.74
86204;BME280;76856;42.356;24.732;2024-03-08T19:17:54;99534.13;;;7.33;78.15
86204;BME280;76856;42.356;24.732;2024-03-08T19:20:22;99535.94;;;7.33;78.78
86204;BME280;76856;42.356;24.732;2024-03-08T19:22:53;99536.91;;;7.22;79.39
86204;BME280;76856;42.356;24.732;2024-03-08T19:25:33;99534.16;;;7.14;79.23
86204;BME280;76856;42.356;24.732;2024-03-08T19:28:00;99528.63;;;7.07;79.25
86204;BME280;76856;42.356;24.732;2024-03-08T19:30:27;99528.31;;;7.00;79.54
86204;BME280;76856;42.356;24.732;2024-03-08T19:32:55;99534.41;;;6.91;80.10
86204;BME280;76856;42.356;24.732;2024-03-08T19:35:24;99531.53;;;6.85;81.05
86204;BME280;76856;42.356;24.732;2024-03-08T19:37:51;99538.00;;;6.81;81.46
86204;BME280;76856;42.356;24.732;2024-03-08T19:40:25;99540.34;;;6.84;81.04
86204;BME280;76856;42.356;24.732;2024-03-08T19:45:21;99544.66;;;6.85;81.10
86204;BME280;76856;42.356;24.732;2024-03-08T19:47:47;99553.38;;;6.75;81.52
86204;BME280;76856;42.356;24.732;2024-03-08T19:50:16;99554.03;;;6.77;80.05
86204;BME280;76856;42.356;24.732;2024-03-08T19:52:48;99545.75;;;6.72;80.75
86204;BME280;76856;42.356;24.732;2024-03-08T19:55:17;99551.69;;;6.74;80.25
86204;BME280;76856;42.356;24.732;2024-03-08T19:57:46;99545.06;;;6.70;79.72
86204;BME280;76856;42.356;24.732;2024-03-08T20:00:19;99554.84;;;6.68;80.64
86204;BME280;76856;42.356;24.732;2024-03-08T20:02:55;99550.16;;;6.62;80.57
86204;BME280;76856;42.356;24.732;2024-03-08T20:05:22;99550.81;;;6.54;80.55
86204;BME280;76856;42.356;24.732;2024-03-08T20:07:51;99551.09;;;6.51;80.42
86204;BME280;76856;42.356;24.732;2024-03-08T20:10:29;99548.88;;;6.47;80.30
86204;BME280;76856;42.356;24.732;2024-03-08T20:12:55;99547.47;;;6.43;80.93
86204;BME280;76856;42.356;24.732;2024-03-08T20:15:22;99545.81;;;6.42;80.74
86204;BME280;76856;42.356;24.732;2024-03-08T20:17:52;99557.81;;;6.35;81.30
86204;BME280;76856;42.356;24.732;2024-03-08T20:20:22;99555.91;;;6.37;81.23
86204;BME280;76856;42.356;24.732;2024-03-08T20:22:49;99549.81;;;6.36;81.34
86204;BME280;76856;42.356;24.732;2024-03-08T20:25:16;99553.97;;;6.39;81.75
86204;BME280;76856;42.356;24.732;2024-03-08T20:27:48;99554.78;;;6.39;81.77
86204;BME280;76856;42.356;24.732;2024-03-08T20:30:18;99553.56;;;6.43;81.45
86204;BME280;76856;42.356;24.732;2024-03-08T20:32:51;99551.47;;;6.37;81.59
86204;BME280;76856;42.356;24.732;2024-03-08T20:35:25;99555.09;;;6.46;82.05
86204;BME280;76856;42.356;24.732;2024-03-08T20:37:51;99553.88;;;6.50;81.58
86204;BME280;76856;42.356;24.732;2024-03-08T20:40:17;99546.25;;;6.47;81.34
86204;BME280;76856;42.356;24.732;2024-03-08T20:42:52;99545.69;;;6.43;81.75
86204;BME280;76856;42.356;24.732;2024-03-08T20:45:18;99550.63;;;6.37;81.49
86204;BME280;76856;42.356;24.732;2024-03-08T20:47:44;99545.41;;;6.37;82.30
86204;BME280;76856;42.356;24.732;2024-03-08T20:50:10;99560.06;;;6.39;82.06
86204;BME280;76856;42.356;24.732;2024-03-08T20:52:42;99564.75;;;6.36;82.86
86204;BME280;76856;42.356;24.732;2024-03-08T20:55:12;99561.84;;;6.39;82.89
86204;BME280;76856;42.356;24.732;2024-03-08T20:57:50;99566.13;;;6.40;82.79
86204;BME280;76856;42.356;24.732;2024-03-08T21:00:22;99563.94;;;6.45;82.81
86204;BME280;76856;42.356;24.732;2024-03-08T21:03:08;99557.28;;;6.41;82.49
86204;BME280;76856;42.356;24.732;2024-03-08T21:05:35;99560.88;;;6.40;82.34
86204;BME280;76856;42.356;24.732;2024-03-08T21:08:02;99567.78;;;6.41;82.91
86204;BME280;76856;42.356;24.732;2024-03-08T21:10:34;99565.56;;;6.36;82.24
86204;BME280;76856;42.356;24.732;2024-03-08T21:13:02;99579.34;;;6.28;83.18
86204;BME280;76856;42.356;24.732;2024-03-08T21:15:27;99574.25;;;6.27;83.22
86204;BME280;76856;42.356;24.732;2024-03-08T21:17:53;99585.03;;;6.24;83.44
86204;BME280;76856;42.356;24.732;2024-03-08T21:20:19;99587.06;;;6.20;83.73
86204;BME280;76856;42.356;24.732;2024-03-08T21:22:49;99577.97;;;6.24;83.35
86204;BME280;76856;42.356;24.732;2024-03-08T21:25:15;99585.31;;;6.30;83.57
86204;BME280;76856;42.356;24.732;2024-03-08T21:27:42;99584.34;;;6.31;82.79
86204;BME280;76856;42.356;24.732;2024-03-08T21:30:11;99597.91;;;6.37;82.16
86204;BME280;76856;42.356;24.732;2024-03-08T21:32:49;99593.38;;;6.39;82.30
86204;BME280;76856;42.356;24.732;2024-03-08T21:35:16;99595.00;;;6.40;82.22
86204;BME280;76856;42.356;24.732;2024-03-08T21:37:46;99585.78;;;6.45;82.26
86204;BME280;76856;42.356;24.732;2024-03-08T21:40:12;99590.75;;;6.48;82.57
86204;BME280;76856;42.356;24.732;2024-03-08T21:42:38;99588.69;;;6.52;81.82
86204;BME280;76856;42.356;24.732;2024-03-08T21:45:06;99594.75;;;6.43;82.35
86204;BME280;76856;42.356;24.732;2024-03-08T21:47:32;99591.84;;;6.46;82.93
86204;BME280;76856;42.356;24.732;2024-03-08T21:49:58;99593.38;;;6.48;81.98
86204;BME280;76856;42.356;24.732;2024-03-08T21:52:24;99588.28;;;6.47;81.90
86204;BME280;76856;42.356;24.732;2024-03-08T21:54:50;99585.75;;;6.36;82.66
86204;BME280;76856;42.356;24.732;2024-03-08T21:57:16;99577.88;;;6.36;81.96
86204;BME280;76856;42.356;24.732;2024-03-08T21:59:45;99578.56;;;6.38;82.41
86204;BME280;76856;42.356;24.732;2024-03-08T22:02:10;99576.91;;;6.37;82.64
86204;BME280;76856;42.356;24.732;2024-03-08T22:04:36;99574.28;;;6.37;82.29
86204;BME280;76856;42.356;24.732;2024-03-08T22:07:02;99568.84;;;6.28;82.33
86204;BME280;76856;42.356;24.732;2024-03-08T22:09:32;99568.28;;;6.25;82.64
86204;BME280;76856;42.356;24.732;2024-03-08T22:11:58;99573.00;;;6.31;82.33
86204;BME280;76856;42.356;24.732;2024-03-08T22:14:24;99577.97;;;6.24;82.14
86204;BME280;76856;42.356;24.732;2024-03-08T22:16:50;99583.75;;;6.18;82.24
86204;BME280;76856;42.356;24.732;2024-03-08T22:19:18;99589.22;;;6.15;83.12
86204;BME280;76856;42.356;24.732;2024-03-08T22:21:44;99591.63;;;6.18;82.90
86204;BME280;76856;42.356;24.732;2024-03-08T22:24:10;99598.72;;;6.27;82.84
86204;BME280;76856;42.356;24.732;2024-03-08T22:26:37;99591.94;;;6.35;82.71
86204;BME280;76856;42.356;24.732;2024-03-08T22:29:03;99597.38;;;6.43;82.74
86204;BME280;76856;42.356;24.732;2024-03-08T22:31:32;99599.47;;;6.49;82.09
86204;BME280;76856;42.356;24.732;2024-03-08T22:34:01;99596.56;;;6.52;81.32
86204;BME280;76856;42.356;24.732;2024-03-08T22:36:27;99596.28;;;6.55;81.21
86204;BME280;76856;42.356;24.732;2024-03-08T22:38:53;99589.38;;;6.54;81.08
86204;BME280;76856;42.356;24.732;2024-03-08T22:41:19;99584.13;;;6.54;81.26
86204;BME280;76856;42.356;24.732;2024-03-08T22:43:44;99592.16;;;6.52;81.54
86204;BME280;76856;42.356;24.732;2024-03-08T22:46:13;99597.66;;;6.49;80.84
86204;BME280;76856;42.356;24.732;2024-03-08T22:48:39;99592.56;;;6.48;81.20
86204;BME280;76856;42.356;24.732;2024-03-08T22:51:06;99604.88;;;6.47;81.66
86204;BME280;76856;42.356;24.732;2024-03-08T22:53:34;99600.56;;;6.46;81.43
86204;BME280;76856;42.356;24.732;2024-03-08T22:56:01;99597.94;;;6.46;81.24
86204;BME280;76856;42.356;24.732;2024-03-08T22:58:26;99600.44;;;6.48;81.02
86204;BME280;76856;42.356;24.732;2024-03-08T23:00:54;99595.75;;;6.51;81.40
86204;BME280;76856;42.356;24.732;2024-03-08T23:03:23;99591.84;;;6.46;81.00
86204;BME280;76856;42.356;24.732;2024-03-08T23:05:50;99581.34;;;6.46;80.94
86204;BME280;76856;42.356;24.732;2024-03-08T23:08:16;99590.75;;;6.48;81.71
86204;BME280;76856;42.356;24.732;2024-03-08T23:10:44;99584.13;;;6.44;81.85
86204;BME280;76856;42.356;24.732;2024-03-08T23:13:10;99577.34;;;6.42;81.30
86204;BME280;76856;42.356;24.732;2024-03-08T23:15:36;99581.88;;;6.40;81.50
86204;BME280;76856;42.356;24.732;2024-03-08T23:18:04;99578.28;;;6.41;81.15
86204;BME280;76856;42.356;24.732;2024-03-08T23:20:36;99573.31;;;6.38;81.65
86204;BME280;76856;42.356;24.732;2024-03-08T23:23:02;99580.78;;;6.32;82.13
86204;BME280;76856;42.356;24.732;2024-03-08T23:25:30;99566.66;;;6.34;82.19
86204;BME280;76856;42.356;24.732;2024-03-08T23:27:59;99563.06;;;6.35;82.00
86204;BME280;76856;42.356;24.732;2024-03-08T23:30:31;99564.16;;;6.32;81.99
86204;BME280;76856;42.356;24.732;2024-03-08T23:33:00;99571.09;;;6.33;81.38
86204;BME280;76856;42.356;24.732;2024-03-08T23:35:26;99567.66;;;6.32;81.49
86204;BME280;76856;42.356;24.732;2024-03-08T23:37:53;99562.78;;;6.38;81.43
86204;BME280;76856;42.356;24.732;2024-03-08T23:40:20;99561.41;;;6.34;81.23
86204;BME280;76856;42.356;24.732;2024-03-08T23:42:46;99571.38;;;6.40;81.59
86204;BME280;76856;42.356;24.732;2024-03-08T23:45:13;99578.00;;;6.44;80.87
86204;BME280;76856;42.356;24.732;2024-03-08T23:47:45;99577.06;;;6.45;80.92
86204;BME280;76856;42.356;24.732;2024-03-08T23:50:12;99573.91;;;6.51;80.51
86204;BME280;76856;42.356;24.732;2024-03-08T23:52:42;99571.00;;;6.54;80.49
86204;BME280;76856;42.356;24.732;2024-03-08T23:55:10;99573.09;;;6.60;80.42
86204;BME280;76856;42.356;24.732;2024-03-08T23:57:42;99574.78;;;6.61;80.08
